createdAt,value
2022-12-28T00:00:03.086Z,7.57
2022-12-28T00:02:42.540Z,7.28
2022-12-28T00:05:11.526Z,10.35
2022-12-28T00:07:40.168Z,6.47
2022-12-28T00:10:09.307Z,8.23
2022-12-28T00:12:38.419Z,7.22
2022-12-28T00:15:07.797Z,8.73
2022-12-28T00:17:36.919Z,10.25
2022-12-28T00:20:08.333Z,6.90
2022-12-28T00:22:37.045Z,10.50
2022-12-28T00:25:06.798Z,10.25
2022-12-28T00:27:35.736Z,10.07
2022-12-28T00:30:04.547Z,10.13
2022-12-28T00:32:33.231Z,10.18
2022-12-28T00:35:01.978Z,10.38
2022-12-28T00:37:33.302Z,11.40
2022-12-28T00:40:01.694Z,7.35
2022-12-28T00:42:31.534Z,8.68
2022-12-28T00:45:02.914Z,9.63
2022-12-28T00:47:31.905Z,10.68
2022-12-28T00:50:01.108Z,7.68
2022-12-28T00:52:32.654Z,11.10
2022-12-28T00:55:02.221Z,12.93
2022-12-28T00:57:34.102Z,10.45
2022-12-28T01:00:03.853Z,9.02
2022-12-28T01:02:33.697Z,12.00
2022-12-28T01:07:38.706Z,7.50
2022-12-28T01:10:15.282Z,6.15
2022-12-28T01:12:46.079Z,11.35
2022-12-28T01:15:15.915Z,9.88
2022-12-28T01:17:44.823Z,7.57
2022-12-28T01:20:13.502Z,11.95
2022-12-28T01:23:00.560Z,8.88
2022-12-28T01:25:29.486Z,9.75
2022-12-28T01:28:10.206Z,10.65
2022-12-28T01:30:53.620Z,8.85
2022-12-28T01:33:52.407Z,10.85
2022-12-28T01:36:25.117Z,12.13
2022-12-28T01:38:58.954Z,7.63
2022-12-28T01:41:34.237Z,9.32
2022-12-28T01:44:41.748Z,8.32
2022-12-28T01:47:24.555Z,12.18
2022-12-28T01:50:02.393Z,8.57
2022-12-28T01:52:40.259Z,10.52
2022-12-28T01:55:15.448Z,11.73
2022-12-28T01:57:50.192Z,10.20
2022-12-28T02:00:21.270Z,10.60
2022-12-28T02:02:54.095Z,11.93
2022-12-28T02:05:28.528Z,10.77
2022-12-28T02:08:05.144Z,9.02
2022-12-28T02:10:42.295Z,9.95
2022-12-28T02:13:17.380Z,10.00
2022-12-28T02:15:49.009Z,8.45
2022-12-28T02:18:21.626Z,9.85
2022-12-28T02:21:37.806Z,12.82
2022-12-28T02:24:46.506Z,9.52
2022-12-28T02:27:30.583Z,10.27
2022-12-28T02:30:08.795Z,8.30
2022-12-28T02:32:57.716Z,10.27
2022-12-28T02:35:36.317Z,7.43
2022-12-28T02:38:11.870Z,13.18
2022-12-28T02:40:45.212Z,10.60
2022-12-28T02:43:15.618Z,7.35
2022-12-28T02:46:05.394Z,8.93
2022-12-28T02:48:59.192Z,10.68
2022-12-28T02:51:44.025Z,9.85
2022-12-28T02:54:59.243Z,8.68
2022-12-28T02:57:46.770Z,9.85
2022-12-28T03:00:19.036Z,8.43
2022-12-28T03:03:16.389Z,8.48
2022-12-28T03:06:19.292Z,9.68
2022-12-28T03:08:58.088Z,9.48
2022-12-28T03:11:39.376Z,9.27
2022-12-28T03:14:12.223Z,13.23
2022-12-28T03:17:02.503Z,8.52
2022-12-28T03:19:56.081Z,9.77
2022-12-28T03:22:54.715Z,11.20
2022-12-28T03:25:49.329Z,5.13
2022-12-28T03:28:44.178Z,9.20
2022-12-28T03:31:21.187Z,7.40
2022-12-28T03:34:07.247Z,7.07
2022-12-28T03:36:57.601Z,10.65
2022-12-28T03:39:36.675Z,10.60
2022-12-28T03:42:31.178Z,10.27
2022-12-28T03:45:07.671Z,8.63
2022-12-28T03:47:41.862Z,9.23
2022-12-28T03:50:13.849Z,12.93
2022-12-28T03:52:45.476Z,9.70
2022-12-28T03:55:16.369Z,11.43
2022-12-28T03:57:46.924Z,9.80
2022-12-28T04:00:32.233Z,11.13
2022-12-28T04:06:18.098Z,10.68
2022-12-28T04:08:49.106Z,11.95
2022-12-28T04:11:18.342Z,10.65
2022-12-28T04:13:51.728Z,8.85
2022-12-28T04:16:21.495Z,11.27
2022-12-28T04:18:51.259Z,11.40
2022-12-28T04:21:21.843Z,8.02
2022-12-28T04:23:52.027Z,12.63
2022-12-28T04:26:24.581Z,10.50
2022-12-28T04:28:58.130Z,12.80
2022-12-28T04:31:34.070Z,12.15
2022-12-28T04:34:14.042Z,11.63
2022-12-28T04:36:48.707Z,10.10
2022-12-28T04:41:50.480Z,9.13
2022-12-28T04:44:19.197Z,12.30
2022-12-28T04:46:47.656Z,11.55
2022-12-28T04:49:16.222Z,11.65
2022-12-28T04:51:45.011Z,11.50
2022-12-28T04:54:15.943Z,12.90
2022-12-28T04:56:45.959Z,9.10
2022-12-28T04:59:14.628Z,11.48
2022-12-28T05:01:43.330Z,11.32
2022-12-28T05:04:12.074Z,13.02
2022-12-28T05:06:40.591Z,12.77
2022-12-28T05:09:09.193Z,10.43
2022-12-28T05:11:38.114Z,9.25
2022-12-28T05:14:08.335Z,11.15
2022-12-28T05:16:37.188Z,11.02
2022-12-28T05:19:05.921Z,13.77
2022-12-28T05:21:34.953Z,13.30
2022-12-28T05:24:04.793Z,10.63
2022-12-28T05:26:33.277Z,11.88
2022-12-28T05:29:02.235Z,12.38
2022-12-28T05:31:32.690Z,11.70
2022-12-28T05:34:01.924Z,18.75
2022-12-28T05:36:30.385Z,10.45
2022-12-28T05:38:58.989Z,10.05
2022-12-28T05:41:29.513Z,11.18
2022-12-28T05:43:59.345Z,13.32
2022-12-28T05:46:30.982Z,17.50
2022-12-28T05:49:01.352Z,18.23
2022-12-28T05:51:31.654Z,23.65
2022-12-28T05:54:01.627Z,21.00
2022-12-28T05:56:31.177Z,26.88
2022-12-28T05:59:02.704Z,19.77
2022-12-28T06:01:34.192Z,18.77
2022-12-28T06:04:06.648Z,14.70
2022-12-28T06:06:36.411Z,14.00
2022-12-28T06:09:05.570Z,12.90
2022-12-28T06:11:34.055Z,14.00
2022-12-28T06:14:04.034Z,12.52
2022-12-28T06:16:34.676Z,14.07
2022-12-28T06:19:08.616Z,11.30
2022-12-28T06:21:38.521Z,14.15
2022-12-28T06:24:09.001Z,13.32
2022-12-28T06:26:39.545Z,13.85
2022-12-28T06:29:08.685Z,17.88
2022-12-28T06:31:39.751Z,13.32
2022-12-28T06:34:11.082Z,14.75
2022-12-28T06:36:41.734Z,11.98
2022-12-28T06:39:14.819Z,16.65
2022-12-28T06:41:44.012Z,17.52
2022-12-28T06:44:15.653Z,18.63
2022-12-28T06:46:44.355Z,16.08
2022-12-28T06:49:14.434Z,13.48
2022-12-28T06:51:42.944Z,17.58
2022-12-28T06:54:12.470Z,19.35
2022-12-28T06:56:41.686Z,13.30
2022-12-28T06:59:10.166Z,17.20
2022-12-28T07:01:41.256Z,18.42
2022-12-28T07:04:11.994Z,21.50
2022-12-28T07:06:43.930Z,13.90
2022-12-28T07:09:15.664Z,14.73
2022-12-28T07:11:44.642Z,17.10
2022-12-28T07:14:13.665Z,16.63
2022-12-28T07:16:42.913Z,20.35
2022-12-28T07:19:11.465Z,21.23
2022-12-28T07:21:42.651Z,20.25
2022-12-28T07:24:11.881Z,23.83
2022-12-28T07:26:40.505Z,15.77
2022-12-28T07:29:10.109Z,19.52
2022-12-28T07:31:45.238Z,17.83
2022-12-28T07:34:16.449Z,16.15
2022-12-28T07:36:46.896Z,14.40
2022-12-28T07:39:15.538Z,16.98
2022-12-28T07:41:44.119Z,19.85
2022-12-28T07:44:13.244Z,20.05
2022-12-28T07:46:41.722Z,13.82
2022-12-28T07:49:10.407Z,18.77
2022-12-28T07:51:39.947Z,19.65
2022-12-28T07:54:10.152Z,16.08
2022-12-28T07:59:07.642Z,17.80
2022-12-28T08:01:37.721Z,16.73
2022-12-28T08:04:09.390Z,20.05
2022-12-28T08:06:40.628Z,16.30
2022-12-28T08:09:12.515Z,18.23
2022-12-28T08:14:11.260Z,15.35
2022-12-28T08:16:41.140Z,16.77
2022-12-28T08:19:10.820Z,24.23
2022-12-28T08:21:41.437Z,16.95
2022-12-28T08:24:15.554Z,17.08
2022-12-28T08:26:44.950Z,20.38
2022-12-28T08:29:19.311Z,20.58
2022-12-28T08:31:48.516Z,18.92
2022-12-28T08:34:19.038Z,17.73
2022-12-28T08:36:48.105Z,15.57
2022-12-28T08:39:18.040Z,16.95
2022-12-28T08:41:46.874Z,18.60
2022-12-28T08:44:15.498Z,16.70
2022-12-28T08:46:44.201Z,17.58
2022-12-28T08:49:15.813Z,21.23
2022-12-28T08:51:44.567Z,21.85
2022-12-28T08:54:14.979Z,19.13
2022-12-28T08:56:47.171Z,16.50
2022-12-28T08:59:18.146Z,21.33
2022-12-28T09:01:48.106Z,20.38
2022-12-28T09:04:18.660Z,17.73
2022-12-28T09:06:47.610Z,20.25
2022-12-28T09:09:19.546Z,19.08
2022-12-28T09:11:50.475Z,19.45
2022-12-28T09:14:23.606Z,22.15
2022-12-28T09:16:54.543Z,20.80
2022-12-28T09:19:23.786Z,17.38
2022-12-28T09:21:55.548Z,16.90
2022-12-28T09:24:24.881Z,17.38
2022-12-28T09:26:55.623Z,19.40
2022-12-28T09:29:24.425Z,18.33
2022-12-28T09:31:53.236Z,22.30
2022-12-28T09:34:38.316Z,16.77
2022-12-28T09:37:08.689Z,22.38
2022-12-28T09:39:37.685Z,16.45
2022-12-28T09:42:13.982Z,19.45
2022-12-28T09:44:59.700Z,18.42
2022-12-28T09:47:36.177Z,15.45
2022-12-28T09:50:30.072Z,16.90
2022-12-28T09:53:19.942Z,15.60
2022-12-28T09:55:56.449Z,18.58
2022-12-28T09:58:26.824Z,15.57
2022-12-28T10:00:58.799Z,15.45
2022-12-28T10:03:33.632Z,14.60
2022-12-28T10:06:03.427Z,14.52
2022-12-28T10:08:36.715Z,16.40
2022-12-28T10:11:06.904Z,16.10
2022-12-28T10:13:56.121Z,19.30
2022-12-28T10:16:26.723Z,17.92
2022-12-28T10:18:56.593Z,14.02
2022-12-28T10:21:32.689Z,13.82
2022-12-28T10:24:30.872Z,16.42
2022-12-28T10:26:57.080Z,12.63
2022-12-28T10:29:27.878Z,14.68
2022-12-28T10:32:02.294Z,14.63
2022-12-28T10:34:34.301Z,12.13
2022-12-28T10:37:14.800Z,13.13
2022-12-28T10:39:51.681Z,13.75
2022-12-28T10:42:27.399Z,17.88
2022-12-28T10:45:02.736Z,24.10
2022-12-28T10:47:36.576Z,32.50
2022-12-28T10:52:59.332Z,18.30
2022-12-28T10:55:31.023Z,31.27
2022-12-28T10:58:30.075Z,34.20
2022-12-28T11:01:08.656Z,110.38
2022-12-28T11:03:39.292Z,192.10
2022-12-28T11:06:18.786Z,180.05
2022-12-28T11:09:15.987Z,168.13
2022-12-28T11:11:46.706Z,174.32
2022-12-28T11:14:25.491Z,176.13
2022-12-28T11:17:18.049Z,192.23
2022-12-28T11:20:00.337Z,136.25
2022-12-28T11:22:40.863Z,121.85
2022-12-28T11:25:39.146Z,127.80
2022-12-28T11:28:14.598Z,94.20
2022-12-28T11:30:43.613Z,65.07
2022-12-28T11:33:29.720Z,36.47
2022-12-28T11:36:00.212Z,55.22
2022-12-28T11:38:40.183Z,60.13
2022-12-28T11:41:11.944Z,42.55
2022-12-28T11:43:51.099Z,32.08
2022-12-28T11:46:42.777Z,51.90
2022-12-28T11:49:28.693Z,32.60
2022-12-28T11:52:46.510Z,22.80
2022-12-28T11:55:37.346Z,18.05
2022-12-28T11:58:54.929Z,36.05
2022-12-28T12:01:44.568Z,31.88
2022-12-28T12:04:40.429Z,22.52
2022-12-28T12:07:50.375Z,27.13
2022-12-28T12:10:35.380Z,34.90
2022-12-28T12:13:44.396Z,34.88
2022-12-28T12:16:26.045Z,20.30
2022-12-28T12:18:57.635Z,12.10
2022-12-28T12:21:34.359Z,17.58
2022-12-28T12:24:14.776Z,19.45
2022-12-28T12:26:50.580Z,17.67
2022-12-28T12:29:24.122Z,24.23
2022-12-28T12:32:01.877Z,47.85
2022-12-28T12:34:40.434Z,26.70
2022-12-28T12:37:37.568Z,15.85
2022-12-28T12:40:40.451Z,11.10
2022-12-28T12:43:27.067Z,27.23
2022-12-28T12:46:01.644Z,19.33
2022-12-28T12:48:47.668Z,23.48
2022-12-28T12:51:26.935Z,35.15
2022-12-28T12:54:20.350Z,20.13
2022-12-28T12:56:55.453Z,23.38
2022-12-28T12:59:55.554Z,15.20
2022-12-28T13:02:45.370Z,15.55
2022-12-28T13:05:18.913Z,14.98
2022-12-28T13:07:47.951Z,12.65
2022-12-28T13:10:26.396Z,13.13
2022-12-28T13:12:58.587Z,13.48
2022-12-28T13:15:28.169Z,17.88
2022-12-28T13:20:58.498Z,12.57
2022-12-28T13:23:28.489Z,14.18
2022-12-28T13:26:01.241Z,14.52
2022-12-28T13:28:32.253Z,12.55
2022-12-28T13:31:08.135Z,11.05
2022-12-28T13:33:36.698Z,12.88
2022-12-28T13:36:19.599Z,10.73
2022-12-28T13:38:50.236Z,10.65
2022-12-28T13:41:26.207Z,11.38
2022-12-28T13:44:17.207Z,13.27
2022-12-28T13:46:50.471Z,12.20
2022-12-28T13:49:21.584Z,12.23
2022-12-28T13:51:53.723Z,13.93
2022-12-28T13:54:25.300Z,11.40
2022-12-28T13:57:14.731Z,8.95
2022-12-28T13:59:48.494Z,11.02
2022-12-28T14:02:20.991Z,12.15
2022-12-28T14:04:53.561Z,10.75
2022-12-28T14:07:26.111Z,9.90
2022-12-28T14:09:55.487Z,10.00
2022-12-28T14:12:26.568Z,11.80
2022-12-28T14:14:56.112Z,10.95
2022-12-28T14:17:26.446Z,13.95
2022-12-28T14:19:58.651Z,10.93
2022-12-28T14:22:32.797Z,10.60
2022-12-28T14:25:03.663Z,10.77
2022-12-28T14:27:37.406Z,13.27
2022-12-28T14:30:08.754Z,13.27
2022-12-28T14:32:42.879Z,11.55
2022-12-28T14:35:21.090Z,8.18
2022-12-28T14:37:54.076Z,15.32
2022-12-28T14:40:29.958Z,10.00
2022-12-28T14:43:04.134Z,10.57
2022-12-28T14:46:06.808Z,11.50
2022-12-28T14:48:40.899Z,11.27
2022-12-28T14:51:26.506Z,13.05
2022-12-28T14:54:23.128Z,10.23
2022-12-28T14:56:56.972Z,15.52
2022-12-28T14:59:31.701Z,12.82
2022-12-28T15:02:00.557Z,11.90
2022-12-28T15:04:37.904Z,12.20
2022-12-28T15:07:08.000Z,14.52
2022-12-28T15:09:36.885Z,12.77
2022-12-28T15:12:10.016Z,13.25
2022-12-28T15:14:40.821Z,12.40
2022-12-28T15:17:09.574Z,12.85
2022-12-28T15:19:38.372Z,14.27
2022-12-28T15:22:07.395Z,11.55
2022-12-28T15:24:36.173Z,13.63
2022-12-28T15:27:05.140Z,17.67
2022-12-28T15:32:24.246Z,18.45
2022-12-28T15:34:52.899Z,14.90
2022-12-28T15:37:21.435Z,14.18
2022-12-28T15:39:50.091Z,17.85
2022-12-28T15:42:18.923Z,14.13
2022-12-28T15:44:48.849Z,15.55
2022-12-28T15:47:17.736Z,14.10
2022-12-28T15:49:47.890Z,15.18
2022-12-28T15:52:16.612Z,17.20
2022-12-28T15:54:47.323Z,17.08
2022-12-28T15:57:16.239Z,20.67
2022-12-28T15:59:44.898Z,16.10
2022-12-28T16:02:15.246Z,15.90
2022-12-28T16:04:44.438Z,15.63
2022-12-28T16:07:14.524Z,18.90
2022-12-28T16:09:43.182Z,19.48
2022-12-28T16:12:17.359Z,16.73
2022-12-28T16:14:47.958Z,15.35
2022-12-28T16:17:16.659Z,15.80
2022-12-28T16:19:45.825Z,18.80
2022-12-28T16:22:15.853Z,20.40
2022-12-28T16:24:44.513Z,16.90
2022-12-28T16:27:13.368Z,20.25
2022-12-28T16:29:42.166Z,19.02
2022-12-28T16:32:10.919Z,18.58
2022-12-28T16:34:40.209Z,19.08
2022-12-28T16:37:10.417Z,21.02
2022-12-28T16:39:40.609Z,16.45
2022-12-28T16:42:09.187Z,15.48
2022-12-28T16:44:37.659Z,16.02
2022-12-28T16:47:06.971Z,15.48
2022-12-28T16:49:40.232Z,15.30
2022-12-28T16:52:08.809Z,21.50
2022-12-28T16:54:37.559Z,15.02
2022-12-28T16:57:07.590Z,16.75
2022-12-28T16:59:36.104Z,15.20
2022-12-28T17:02:05.870Z,18.70
2022-12-28T17:04:35.304Z,17.95
2022-12-28T17:07:03.989Z,17.75
2022-12-28T17:09:33.520Z,19.73
2022-12-28T17:12:02.365Z,21.02
2022-12-28T17:14:39.761Z,18.15
2022-12-28T17:17:08.839Z,19.83
2022-12-28T17:19:37.893Z,16.58
2022-12-28T17:22:07.054Z,18.00
2022-12-28T17:24:35.986Z,15.30
2022-12-28T17:27:08.495Z,17.48
2022-12-28T17:29:40.818Z,17.77
2022-12-28T17:32:11.491Z,19.25
2022-12-28T17:34:40.194Z,17.60
2022-12-28T17:37:08.980Z,15.02
2022-12-28T17:39:40.598Z,17.52
2022-12-28T17:42:09.931Z,16.77
2022-12-28T17:44:38.773Z,19.05
2022-12-28T17:47:09.887Z,16.70
2022-12-28T17:49:38.871Z,15.73
2022-12-28T17:52:07.900Z,17.27
2022-12-28T17:54:36.795Z,16.67
2022-12-28T17:57:05.645Z,15.88
2022-12-28T17:59:34.153Z,18.65
2022-12-28T18:02:05.300Z,20.08
2022-12-28T18:04:35.769Z,17.67
2022-12-28T18:07:04.814Z,17.75
2022-12-28T18:09:33.521Z,18.13
2022-12-28T18:12:02.416Z,18.08
2022-12-28T18:14:31.838Z,20.73
2022-12-28T18:17:00.618Z,19.38
2022-12-28T18:19:30.401Z,20.00
2022-12-28T18:22:00.425Z,17.95
2022-12-28T18:24:29.844Z,17.55
2022-12-28T18:26:58.717Z,20.10
2022-12-28T18:29:27.327Z,17.15
2022-12-28T18:31:56.344Z,18.10
2022-12-28T18:34:25.093Z,18.35
2022-12-28T18:36:53.781Z,15.48
2022-12-28T18:39:24.122Z,15.05
2022-12-28T18:41:53.081Z,17.90
2022-12-28T18:44:21.584Z,21.70
2022-12-28T18:46:50.517Z,17.83
2022-12-28T18:49:19.456Z,16.55
2022-12-28T18:51:48.289Z,17.75
2022-12-28T18:54:17.271Z,18.63
2022-12-28T18:56:47.427Z,20.83
2022-12-28T18:59:16.056Z,21.73
2022-12-28T19:04:37.226Z,20.73
2022-12-28T19:09:34.467Z,16.38
2022-12-28T19:12:05.307Z,17.67
2022-12-28T19:14:34.299Z,17.45
2022-12-28T19:17:02.987Z,17.80
2022-12-28T19:19:31.606Z,16.80
2022-12-28T19:22:00.408Z,18.88
2022-12-28T19:24:29.112Z,18.75
2022-12-28T19:26:57.810Z,15.60
2022-12-28T19:29:28.069Z,15.55
2022-12-28T19:31:56.857Z,12.32
2022-12-28T19:34:25.899Z,14.90
2022-12-28T19:36:54.838Z,12.75
2022-12-28T19:39:23.871Z,13.95
2022-12-28T19:41:52.999Z,13.07
2022-12-28T19:44:23.250Z,12.90
2022-12-28T19:46:54.328Z,15.32
2022-12-28T19:49:23.294Z,13.38
2022-12-28T19:51:52.296Z,15.73
2022-12-28T19:54:21.153Z,15.77
2022-12-28T19:56:50.108Z,12.95
2022-12-28T19:59:18.822Z,12.60
2022-12-28T20:01:47.524Z,14.05
2022-12-28T20:04:17.662Z,14.50
2022-12-28T20:06:46.743Z,14.75
2022-12-28T20:09:16.372Z,13.50
2022-12-28T20:12:02.141Z,13.60
2022-12-28T20:15:19.916Z,14.23
2022-12-28T20:17:51.360Z,13.48
2022-12-28T20:20:26.753Z,9.57
2022-12-28T20:22:56.307Z,15.80
2022-12-28T20:25:25.392Z,12.90
2022-12-28T20:27:54.589Z,13.93
2022-12-28T20:30:23.526Z,15.52
2022-12-28T20:32:52.659Z,15.55
2022-12-28T20:35:25.243Z,14.60
2022-12-28T20:37:54.874Z,13.82
2022-12-28T20:40:23.739Z,14.00
2022-12-28T20:43:10.713Z,16.25
2022-12-28T20:45:40.131Z,14.50
2022-12-28T20:48:11.020Z,14.52
2022-12-28T20:50:41.152Z,13.90
2022-12-28T20:53:09.996Z,14.55
2022-12-28T20:55:39.286Z,20.48
2022-12-28T20:58:08.226Z,18.08
2022-12-28T21:00:38.825Z,13.23
2022-12-28T21:03:07.893Z,15.27
2022-12-28T21:05:37.013Z,14.50
2022-12-28T21:08:07.253Z,15.68
2022-12-28T21:10:35.827Z,15.63
2022-12-28T21:13:04.582Z,13.52
2022-12-28T21:15:33.234Z,13.70
2022-12-28T21:18:02.998Z,15.05
2022-12-28T21:20:38.635Z,15.57
2022-12-28T21:23:09.488Z,13.02
2022-12-28T21:25:38.211Z,15.35
2022-12-28T21:28:07.339Z,12.95
2022-12-28T21:30:36.055Z,15.73
2022-12-28T21:33:05.547Z,13.93
2022-12-28T21:35:35.024Z,12.68
2022-12-28T21:38:05.506Z,12.63
2022-12-28T21:40:35.710Z,10.75
2022-12-28T21:43:04.317Z,13.10
2022-12-28T21:45:32.948Z,12.15
2022-12-28T21:48:01.983Z,12.27
2022-12-28T21:50:30.638Z,9.68
2022-12-28T21:52:59.368Z,12.18
2022-12-28T21:55:46.591Z,12.90
2022-12-28T21:58:16.592Z,16.70
2022-12-28T22:01:02.966Z,15.60
2022-12-28T22:03:48.937Z,10.73
2022-12-28T22:06:17.901Z,14.80
2022-12-28T22:09:03.994Z,17.92
2022-12-28T22:11:50.172Z,17.42
2022-12-28T22:14:20.244Z,15.30
2022-12-28T22:16:48.845Z,13.48
2022-12-28T22:19:17.708Z,13.25
2022-12-28T22:21:46.371Z,14.05
2022-12-28T22:24:14.981Z,15.02
2022-12-28T22:26:43.519Z,14.68
2022-12-28T22:29:12.820Z,16.95
2022-12-28T22:31:42.881Z,12.25
2022-12-28T22:34:11.582Z,14.30
2022-12-28T22:36:40.603Z,13.00
2022-12-28T22:39:09.333Z,14.32
2022-12-28T22:41:37.883Z,14.27
2022-12-28T22:44:06.922Z,14.48
2022-12-28T22:46:35.746Z,15.20
2022-12-28T22:49:05.883Z,12.38
2022-12-28T22:51:34.490Z,11.90
2022-12-28T22:54:03.604Z,12.55
2022-12-28T22:56:32.245Z,13.82
2022-12-28T22:59:04.796Z,13.77
2022-12-28T23:01:34.946Z,13.45
2022-12-28T23:04:03.773Z,12.95
2022-12-28T23:06:34.070Z,15.77
2022-12-28T23:09:02.931Z,14.02
2022-12-28T23:11:38.358Z,11.73
2022-12-28T23:14:27.223Z,15.52
2022-12-28T23:16:56.231Z,15.30
2022-12-28T23:19:42.608Z,16.85
2022-12-28T23:22:32.590Z,14.38
2022-12-28T23:25:18.686Z,13.75
2022-12-28T23:27:48.191Z,13.98
2022-12-28T23:30:19.210Z,13.98
2022-12-28T23:32:47.911Z,14.23
2022-12-28T23:35:17.860Z,16.30
2022-12-28T23:37:48.873Z,12.27
2022-12-28T23:40:19.468Z,15.93
2022-12-28T23:42:48.691Z,15.55
2022-12-28T23:45:19.014Z,15.75
2022-12-28T23:47:47.981Z,13.57
2022-12-28T23:50:18.092Z,12.38
2022-12-28T23:52:48.359Z,14.45
2022-12-28T23:55:17.207Z,14.80
2022-12-28T23:57:45.761Z,13.23
